sensor_id;sensor_type;location;lat;lon;timestamp;temperature;humidity
36498;DHT22;22513;51.222;6.480;2022-12-18T00:01:32;-5.20;99.90
36498;DHT22;22513;51.222;6.480;2022-12-18T00:04:07;-5.30;99.90
36498;DHT22;22513;51.222;6.480;2022-12-18T00:06:34;-5.40;99.90
36498;DHT22;22513;51.222;6.480;2022-12-18T00:09:01;-5.40;99.90
36498;DHT22;22513;51.222;6.480;2022-12-18T00:11:28;-5.50;99.90
36498;DHT22;22513;51.222;6.480;2022-12-18T00:13:56;-5.50;99.90
36498;DHT22;22513;51.222;6.480;2022-12-18T00:16:24;-5.50;99.90
36498;DHT22;22513;51.222;6.480;2022-12-18T00:18:51;-5.50;99.90
36498;DHT22;22513;51.222;6.480;2022-12-18T00:21:18;-5.50;99.90
36498;DHT22;22513;51.222;6.480;2022-12-18T00:23:45;-5.50;99.90
36498;DHT22;22513;51.222;6.480;2022-12-18T00:26:13;-5.50;99.90
36498;DHT22;22513;51.222;6.480;2022-12-18T00:28:40;-5.50;99.90
36498;DHT22;22513;51.222;6.480;2022-12-18T00:31:08;-5.50;99.90
36498;DHT22;22513;51.222;6.480;2022-12-18T00:33:34;-5.60;99.90
36498;DHT22;22513;51.222;6.480;2022-12-18T00:36:11;-5.60;99.90
36498;DHT22;22513;51.222;6.480;2022-12-18T00:38:37;-5.50;99.90
36498;DHT22;22513;51.222;6.480;2022-12-18T00:41:03;-5.60;99.90
36498;DHT22;22513;51.222;6.480;2022-12-18T00:43:29;-5.60;99.90
36498;DHT22;22513;51.222;6.480;2022-12-18T00:45:54;-5.50;99.90
36498;DHT22;22513;51.222;6.480;2022-12-18T00:48:20;-5.50;99.90
36498;DHT22;22513;51.222;6.480;2022-12-18T00:50:48;-5.50;99.90
36498;DHT22;22513;51.222;6.480;2022-12-18T00:53:14;-5.50;99.90
36498;DHT22;22513;51.222;6.480;2022-12-18T00:55:40;-5.50;99.90
36498;DHT22;22513;51.222;6.480;2022-12-18T00:58:06;-5.50;99.90
36498;DHT22;22513;51.222;6.480;2022-12-18T01:00:32;-5.50;99.90
36498;DHT22;22513;51.222;6.480;2022-12-18T01:02:58;-5.40;99.90
36498;DHT22;22513;51.222;6.480;2022-12-18T01:05:23;-5.40;99.90
36498;DHT22;22513;51.222;6.480;2022-12-18T01:07:49;-5.40;99.90
36498;DHT22;22513;51.222;6.480;2022-12-18T01:10:15;-5.40;99.90
36498;DHT22;22513;51.222;6.480;2022-12-18T01:12:40;-5.40;99.90
36498;DHT22;22513;51.222;6.480;2022-12-18T01:15:07;-5.40;99.90
36498;DHT22;22513;51.222;6.480;2022-12-18T01:17:33;-5.40;99.90
36498;DHT22;22513;51.222;6.480;2022-12-18T01:19:59;-5.40;99.90
36498;DHT22;22513;51.222;6.480;2022-12-18T01:22:25;-5.40;99.90
36498;DHT22;22513;51.222;6.480;2022-12-18T01:24:51;-5.40;99.90
36498;DHT22;22513;51.222;6.480;2022-12-18T01:27:16;-5.30;99.90
36498;DHT22;22513;51.222;6.480;2022-12-18T01:29:42;-5.30;99.90
36498;DHT22;22513;51.222;6.480;2022-12-18T01:32:08;-5.30;99.90
36498;DHT22;22513;51.222;6.480;2022-12-18T01:34:35;-5.30;99.90
36498;DHT22;22513;51.222;6.480;2022-12-18T01:37:03;-5.30;99.90
36498;DHT22;22513;51.222;6.480;2022-12-18T01:39:29;-5.30;99.90
36498;DHT22;22513;51.222;6.480;2022-12-18T01:41:54;-5.30;99.90
36498;DHT22;22513;51.222;6.480;2022-12-18T01:47:47;-5.30;99.90
36498;DHT22;22513;51.222;6.480;2022-12-18T01:50:16;-5.30;99.90
36498;DHT22;22513;51.222;6.480;2022-12-18T01:52:51;-5.30;99.90
36498;DHT22;22513;51.222;6.480;2022-12-18T01:55:20;-5.30;99.90
36498;DHT22;22513;51.222;6.480;2022-12-18T01:57:48;-5.40;99.90
36498;DHT22;22513;51.222;6.480;2022-12-18T02:00:18;-5.40;99.90
36498;DHT22;22513;51.222;6.480;2022-12-18T02:02:45;-5.40;99.90
36498;DHT22;22513;51.222;6.480;2022-12-18T02:05:17;-5.40;99.90
36498;DHT22;22513;51.222;6.480;2022-12-18T02:15:40;-5.40;99.90
36498;DHT22;22513;51.222;6.480;2022-12-18T02:18:20;-5.40;99.90
36498;DHT22;22513;51.222;6.480;2022-12-18T02:28:53;-5.50;99.90
36498;DHT22;22513;51.222;6.480;2022-12-18T02:31:27;-5.50;99.90
36498;DHT22;22513;51.222;6.480;2022-12-18T02:33:55;-5.50;99.90
36498;DHT22;22513;51.222;6.480;2022-12-18T02:36:22;-5.50;99.90
36498;DHT22;22513;51.222;6.480;2022-12-18T02:38:50;-5.50;99.90
36498;DHT22;22513;51.222;6.480;2022-12-18T02:41:18;-5.50;99.90
36498;DHT22;22513;51.222;6.480;2022-12-18T02:43:58;-5.50;99.90
36498;DHT22;22513;51.222;6.480;2022-12-18T02:49:26;-5.50;99.90
36498;DHT22;22513;51.222;6.480;2022-12-18T03:00:21;-5.60;99.90
36498;DHT22;22513;51.222;6.480;2022-12-18T03:02:54;-5.60;99.90
36498;DHT22;22513;51.222;6.480;2022-12-18T03:05:35;-5.60;99.90
36498;DHT22;22513;51.222;6.480;2022-12-18T03:08:07;-5.50;99.90
36498;DHT22;22513;51.222;6.480;2022-12-18T03:10:42;-5.50;99.90
36498;DHT22;22513;51.222;6.480;2022-12-18T03:13:10;-5.50;99.90
36498;DHT22;22513;51.222;6.480;2022-12-18T03:15:44;-5.50;99.90
36498;DHT22;22513;51.222;6.480;2022-12-18T03:18:17;-5.50;99.90
36498;DHT22;22513;51.222;6.480;2022-12-18T03:20:46;-5.50;99.90
36498;DHT22;22513;51.222;6.480;2022-12-18T03:23:17;-5.50;99.90
36498;DHT22;22513;51.222;6.480;2022-12-18T03:25:44;-5.40;99.90
36498;DHT22;22513;51.222;6.480;2022-12-18T03:28:15;-5.40;99.90
36498;DHT22;22513;51.222;6.480;2022-12-18T03:30:43;-5.40;99.90
36498;DHT22;22513;51.222;6.480;2022-12-18T03:35:50;-5.40;99.90
36498;DHT22;22513;51.222;6.480;2022-12-18T03:38:16;-5.30;99.90
36498;DHT22;22513;51.222;6.480;2022-12-18T03:43:26;-5.40;99.90
36498;DHT22;22513;51.222;6.480;2022-12-18T03:46:01;-5.40;99.90
36498;DHT22;22513;51.222;6.480;2022-12-18T03:48:44;-5.40;99.90
36498;DHT22;22513;51.222;6.480;2022-12-18T03:51:20;-5.40;99.90
36498;DHT22;22513;51.222;6.480;2022-12-18T03:56:18;-5.50;99.90
36498;DHT22;22513;51.222;6.480;2022-12-18T03:58:48;-5.50;99.90
36498;DHT22;22513;51.222;6.480;2022-12-18T04:01:15;-5.40;99.90
36498;DHT22;22513;51.222;6.480;2022-12-18T04:03:43;-5.40;99.90
36498;DHT22;22513;51.222;6.480;2022-12-18T04:06:11;-5.30;99.90
36498;DHT22;22513;51.222;6.480;2022-12-18T04:08:37;-5.30;99.90
36498;DHT22;22513;51.222;6.480;2022-12-18T04:11:04;-5.30;99.90
36498;DHT22;22513;51.222;6.480;2022-12-18T04:13:36;-5.30;99.90
36498;DHT22;22513;51.222;6.480;2022-12-18T04:16:02;-5.30;99.90
36498;DHT22;22513;51.222;6.480;2022-12-18T04:18:28;-5.40;99.90
36498;DHT22;22513;51.222;6.480;2022-12-18T04:20:54;-5.40;99.90
36498;DHT22;22513;51.222;6.480;2022-12-18T04:23:19;-5.40;99.90
36498;DHT22;22513;51.222;6.480;2022-12-18T04:25:47;-5.40;99.90
36498;DHT22;22513;51.222;6.480;2022-12-18T04:28:13;-5.40;99.90
36498;DHT22;22513;51.222;6.480;2022-12-18T04:30:38;-5.40;99.90
36498;DHT22;22513;51.222;6.480;2022-12-18T04:33:11;-5.40;99.90
36498;DHT22;22513;51.222;6.480;2022-12-18T04:35:38;-5.40;99.90
36498;DHT22;22513;51.222;6.480;2022-12-18T04:38:05;-5.40;99.90
36498;DHT22;22513;51.222;6.480;2022-12-18T04:40:31;-5.40;99.90
36498;DHT22;22513;51.222;6.480;2022-12-18T04:42:57;-5.50;99.90
36498;DHT22;22513;51.222;6.480;2022-12-18T04:45:23;-5.50;99.90
36498;DHT22;22513;51.222;6.480;2022-12-18T04:47:48;-5.40;99.90
36498;DHT22;22513;51.222;6.480;2022-12-18T04:50:14;-5.40;99.90
36498;DHT22;22513;51.222;6.480;2022-12-18T04:52:40;-5.40;99.90
36498;DHT22;22513;51.222;6.480;2022-12-18T04:55:05;-5.40;99.90
36498;DHT22;22513;51.222;6.480;2022-12-18T04:57:31;-5.30;99.90
36498;DHT22;22513;51.222;6.480;2022-12-18T04:59:57;-5.30;99.90
36498;DHT22;22513;51.222;6.480;2022-12-18T05:02:22;-5.30;99.90
36498;DHT22;22513;51.222;6.480;2022-12-18T05:04:48;-5.40;99.90
36498;DHT22;22513;51.222;6.480;2022-12-18T05:07:13;-5.40;99.90
36498;DHT22;22513;51.222;6.480;2022-12-18T05:09:39;-5.40;99.90
36498;DHT22;22513;51.222;6.480;2022-12-18T05:12:04;-5.40;99.90
36498;DHT22;22513;51.222;6.480;2022-12-18T05:14:30;-5.40;99.90
36498;DHT22;22513;51.222;6.480;2022-12-18T05:16:56;-5.40;99.90
36498;DHT22;22513;51.222;6.480;2022-12-18T05:19:21;-5.50;99.90
36498;DHT22;22513;51.222;6.480;2022-12-18T05:21:47;-5.50;99.90
36498;DHT22;22513;51.222;6.480;2022-12-18T05:24:12;-5.40;99.90
36498;DHT22;22513;51.222;6.480;2022-12-18T05:26:38;-5.40;99.90
36498;DHT22;22513;51.222;6.480;2022-12-18T05:29:03;-5.50;99.90
36498;DHT22;22513;51.222;6.480;2022-12-18T05:31:29;-5.50;99.90
36498;DHT22;22513;51.222;6.480;2022-12-18T05:33:57;-5.60;99.90
36498;DHT22;22513;51.222;6.480;2022-12-18T05:36:23;-5.60;99.90
36498;DHT22;22513;51.222;6.480;2022-12-18T05:38:49;-5.60;99.90
36498;DHT22;22513;51.222;6.480;2022-12-18T05:41:14;-5.60;99.90
36498;DHT22;22513;51.222;6.480;2022-12-18T05:43:40;-5.60;99.90
36498;DHT22;22513;51.222;6.480;2022-12-18T05:46:08;-5.60;99.90
36498;DHT22;22513;51.222;6.480;2022-12-18T05:48:34;-5.60;99.90
36498;DHT22;22513;51.222;6.480;2022-12-18T05:51:07;-5.60;99.90
36498;DHT22;22513;51.222;6.480;2022-12-18T05:53:35;-5.50;99.90
36498;DHT22;22513;51.222;6.480;2022-12-18T05:56:02;-5.40;99.90
36498;DHT22;22513;51.222;6.480;2022-12-18T05:58:29;-5.40;99.90
36498;DHT22;22513;51.222;6.480;2022-12-18T06:00:55;-5.40;99.90
36498;DHT22;22513;51.222;6.480;2022-12-18T06:03:20;-5.40;99.90
36498;DHT22;22513;51.222;6.480;2022-12-18T06:05:46;-5.40;99.90
36498;DHT22;22513;51.222;6.480;2022-12-18T06:08:13;-5.40;99.90
36498;DHT22;22513;51.222;6.480;2022-12-18T06:10:39;-5.40;99.90
36498;DHT22;22513;51.222;6.480;2022-12-18T06:13:05;-5.40;99.90
36498;DHT22;22513;51.222;6.480;2022-12-18T06:15:32;-5.40;99.90
36498;DHT22;22513;51.222;6.480;2022-12-18T06:17:57;-5.40;99.90
36498;DHT22;22513;51.222;6.480;2022-12-18T06:20:23;-5.40;99.90
36498;DHT22;22513;51.222;6.480;2022-12-18T06:22:49;-5.40;99.90
36498;DHT22;22513;51.222;6.480;2022-12-18T06:25:14;-5.40;99.90
36498;DHT22;22513;51.222;6.480;2022-12-18T06:27:40;-5.30;99.90
36498;DHT22;22513;51.222;6.480;2022-12-18T06:30:07;-5.30;99.90
36498;DHT22;22513;51.222;6.480;2022-12-18T06:32:32;-5.30;99.90
36498;DHT22;22513;51.222;6.480;2022-12-18T06:34:58;-5.30;99.90
36498;DHT22;22513;51.222;6.480;2022-12-18T06:37:24;-5.30;99.90
36498;DHT22;22513;51.222;6.480;2022-12-18T06:39:51;-5.40;99.90
36498;DHT22;22513;51.222;6.480;2022-12-18T06:42:17;-5.40;99.90
36498;DHT22;22513;51.222;6.480;2022-12-18T06:44:43;-5.40;99.90
36498;DHT22;22513;51.222;6.480;2022-12-18T06:47:08;-5.50;99.90
36498;DHT22;22513;51.222;6.480;2022-12-18T06:49:34;-5.40;99.90
36498;DHT22;22513;51.222;6.480;2022-12-18T06:52:00;-5.50;99.90
36498;DHT22;22513;51.222;6.480;2022-12-18T06:54:25;-5.50;99.90
36498;DHT22;22513;51.222;6.480;2022-12-18T06:56:51;-5.40;99.90
36498;DHT22;22513;51.222;6.480;2022-12-18T06:59:17;-5.40;99.90
36498;DHT22;22513;51.222;6.480;2022-12-18T07:01:43;-5.40;99.90
36498;DHT22;22513;51.222;6.480;2022-12-18T07:04:11;-5.40;99.90
36498;DHT22;22513;51.222;6.480;2022-12-18T07:06:37;-5.30;99.90
36498;DHT22;22513;51.222;6.480;2022-12-18T07:09:02;-5.20;99.90
36498;DHT22;22513;51.222;6.480;2022-12-18T07:11:28;-5.20;99.90
36498;DHT22;22513;51.222;6.480;2022-12-18T07:13:53;-5.10;99.90
36498;DHT22;22513;51.222;6.480;2022-12-18T07:16:20;-5.10;99.90
36498;DHT22;22513;51.222;6.480;2022-12-18T07:18:46;-5.10;99.90
36498;DHT22;22513;51.222;6.480;2022-12-18T07:21:15;-5.00;99.90
36498;DHT22;22513;51.222;6.480;2022-12-18T07:23:41;-5.00;99.90
36498;DHT22;22513;51.222;6.480;2022-12-18T07:26:09;-5.00;99.90
36498;DHT22;22513;51.222;6.480;2022-12-18T07:28:36;-5.00;99.90
36498;DHT22;22513;51.222;6.480;2022-12-18T07:31:10;-5.00;99.90
36498;DHT22;22513;51.222;6.480;2022-12-18T07:33:36;-4.90;99.90
36498;DHT22;22513;51.222;6.480;2022-12-18T07:36:04;-4.90;99.90
36498;DHT22;22513;51.222;6.480;2022-12-18T07:38:31;-4.90;99.90
36498;DHT22;22513;51.222;6.480;2022-12-18T07:41:04;-4.80;99.90
36498;DHT22;22513;51.222;6.480;2022-12-18T07:43:30;-4.80;99.90
36498;DHT22;22513;51.222;6.480;2022-12-18T07:45:55;-4.70;99.90
36498;DHT22;22513;51.222;6.480;2022-12-18T07:48:21;-4.70;99.90
36498;DHT22;22513;51.222;6.480;2022-12-18T07:50:47;-4.60;99.90
36498;DHT22;22513;51.222;6.480;2022-12-18T07:53:12;-4.60;99.90
36498;DHT22;22513;51.222;6.480;2022-12-18T07:55:40;-4.60;99.90
36498;DHT22;22513;51.222;6.480;2022-12-18T07:58:07;-4.50;99.90
36498;DHT22;22513;51.222;6.480;2022-12-18T08:00:33;-4.50;99.90
36498;DHT22;22513;51.222;6.480;2022-12-18T08:02:58;-4.50;99.90
36498;DHT22;22513;51.222;6.480;2022-12-18T08:05:24;-4.40;99.90
36498;DHT22;22513;51.222;6.480;2022-12-18T08:07:49;-4.30;99.90
36498;DHT22;22513;51.222;6.480;2022-12-18T08:10:15;-4.30;99.90
36498;DHT22;22513;51.222;6.480;2022-12-18T08:12:41;-4.20;99.90
36498;DHT22;22513;51.222;6.480;2022-12-18T08:15:07;-4.20;99.90
36498;DHT22;22513;51.222;6.480;2022-12-18T08:17:33;-4.10;99.90
36498;DHT22;22513;51.222;6.480;2022-12-18T08:19:58;-4.10;99.90
36498;DHT22;22513;51.222;6.480;2022-12-18T08:22:24;-4.00;99.90
36498;DHT22;22513;51.222;6.480;2022-12-18T08:24:50;-3.90;99.90
36498;DHT22;22513;51.222;6.480;2022-12-18T08:27:15;-3.90;99.90
36498;DHT22;22513;51.222;6.480;2022-12-18T08:29:41;-3.80;99.90
36498;DHT22;22513;51.222;6.480;2022-12-18T08:32:07;-3.80;99.90
36498;DHT22;22513;51.222;6.480;2022-12-18T08:34:33;-3.70;99.90
36498;DHT22;22513;51.222;6.480;2022-12-18T08:36:58;-3.60;99.90
36498;DHT22;22513;51.222;6.480;2022-12-18T08:39:24;-3.60;99.90
36498;DHT22;22513;51.222;6.480;2022-12-18T08:41:49;-3.50;99.90
36498;DHT22;22513;51.222;6.480;2022-12-18T08:44:34;-3.40;99.90
36498;DHT22;22513;51.222;6.480;2022-12-18T08:47:07;-3.40;99.90
36498;DHT22;22513;51.222;6.480;2022-12-18T08:49:33;-3.30;99.90
36498;DHT22;22513;51.222;6.480;2022-12-18T08:51:59;-3.20;99.90
36498;DHT22;22513;51.222;6.480;2022-12-18T08:54:25;-3.20;99.90
36498;DHT22;22513;51.222;6.480;2022-12-18T08:56:51;-3.10;99.90
36498;DHT22;22513;51.222;6.480;2022-12-18T08:59:18;-3.00;99.90
36498;DHT22;22513;51.222;6.480;2022-12-18T09:01:43;-3.00;99.90
36498;DHT22;22513;51.222;6.480;2022-12-18T09:04:09;-2.90;99.90
36498;DHT22;22513;51.222;6.480;2022-12-18T09:06:35;-2.80;99.90
36498;DHT22;22513;51.222;6.480;2022-12-18T09:09:02;-2.80;99.90
36498;DHT22;22513;51.222;6.480;2022-12-18T09:11:28;-2.70;99.90
36498;DHT22;22513;51.222;6.480;2022-12-18T09:13:55;-2.70;99.90
36498;DHT22;22513;51.222;6.480;2022-12-18T09:16:22;-2.70;99.90
36498;DHT22;22513;51.222;6.480;2022-12-18T09:18:48;-2.70;99.90
36498;DHT22;22513;51.222;6.480;2022-12-18T09:21:23;-2.60;99.90
36498;DHT22;22513;51.222;6.480;2022-12-18T09:23:54;-2.60;99.90
36498;DHT22;22513;51.222;6.480;2022-12-18T09:26:21;-2.50;99.90
36498;DHT22;22513;51.222;6.480;2022-12-18T09:28:47;-2.40;99.90
36498;DHT22;22513;51.222;6.480;2022-12-18T09:31:13;-2.40;99.90
36498;DHT22;22513;51.222;6.480;2022-12-18T09:33:39;-2.30;99.90
36498;DHT22;22513;51.222;6.480;2022-12-18T09:36:07;-2.20;99.90
36498;DHT22;22513;51.222;6.480;2022-12-18T09:38:33;-2.20;99.90
36498;DHT22;22513;51.222;6.480;2022-12-18T09:43:47;-2.00;99.90
36498;DHT22;22513;51.222;6.480;2022-12-18T09:46:21;-1.90;99.90
36498;DHT22;22513;51.222;6.480;2022-12-18T09:48:52;-1.90;99.90
36498;DHT22;22513;51.222;6.480;2022-12-18T09:51:22;-1.80;99.90
36498;DHT22;22513;51.222;6.480;2022-12-18T09:54:00;-1.80;99.90
36498;DHT22;22513;51.222;6.480;2022-12-18T09:56:28;-1.80;99.90
36498;DHT22;22513;51.222;6.480;2022-12-18T09:59:01;-1.80;99.90
36498;DHT22;22513;51.222;6.480;2022-12-18T10:01:28;-1.70;99.90
36498;DHT22;22513;51.222;6.480;2022-12-18T10:03:54;-1.70;99.90
36498;DHT22;22513;51.222;6.480;2022-12-18T10:06:32;-1.60;99.90
36498;DHT22;22513;51.222;6.480;2022-12-18T10:12:32;-1.50;99.90
36498;DHT22;22513;51.222;6.480;2022-12-18T10:20:32;-1.30;99.90
36498;DHT22;22513;51.222;6.480;2022-12-18T10:23:11;-1.30;99.90
36498;DHT22;22513;51.222;6.480;2022-12-18T10:28:30;-1.20;99.90
36498;DHT22;22513;51.222;6.480;2022-12-18T10:30:56;-1.10;99.90
36498;DHT22;22513;51.222;6.480;2022-12-18T10:33:23;-1.10;99.90
36498;DHT22;22513;51.222;6.480;2022-12-18T10:35:50;-1.10;99.90
36498;DHT22;22513;51.222;6.480;2022-12-18T10:40:55;-1.00;99.90
36498;DHT22;22513;51.222;6.480;2022-12-18T10:48:49;-0.90;99.90
36498;DHT22;22513;51.222;6.480;2022-12-18T10:54:05;-0.80;99.90
36498;DHT22;22513;51.222;6.480;2022-12-18T10:56:35;-0.80;99.90
36498;DHT22;22513;51.222;6.480;2022-12-18T10:59:03;-0.70;99.90
36498;DHT22;22513;51.222;6.480;2022-12-18T11:01:57;-0.70;99.90
36498;DHT22;22513;51.222;6.480;2022-12-18T11:04:25;-0.60;99.90
36498;DHT22;22513;51.222;6.480;2022-12-18T11:09:29;-0.50;99.90
36498;DHT22;22513;51.222;6.480;2022-12-18T11:12:00;-0.50;99.90
36498;DHT22;22513;51.222;6.480;2022-12-18T11:14:31;-0.40;99.90
36498;DHT22;22513;51.222;6.480;2022-12-18T11:16:58;-0.40;99.90
36498;DHT22;22513;51.222;6.480;2022-12-18T11:19:35;-0.40;99.90
36498;DHT22;22513;51.222;6.480;2022-12-18T11:22:04;-0.40;99.90
36498;DHT22;22513;51.222;6.480;2022-12-18T11:24:43;-0.30;99.90
36498;DHT22;22513;51.222;6.480;2022-12-18T11:27:16;-0.20;99.90
36498;DHT22;22513;51.222;6.480;2022-12-18T11:29:42;-0.20;99.90
36498;DHT22;22513;51.222;6.480;2022-12-18T11:34:42;-0.10;99.90
36498;DHT22;22513;51.222;6.480;2022-12-18T11:37:12;-0.10;99.90
36498;DHT22;22513;51.222;6.480;2022-12-18T11:39:58;-0.10;99.90
36498;DHT22;22513;51.222;6.480;2022-12-18T11:42:43;-0.10;99.90
36498;DHT22;22513;51.222;6.480;2022-12-18T11:50:24;0.10;99.90
36498;DHT22;22513;51.222;6.480;2022-12-18T11:52:51;0.10;99.90
36498;DHT22;22513;51.222;6.480;2022-12-18T11:58:29;0.10;99.90
36498;DHT22;22513;51.222;6.480;2022-12-18T12:23:26;0.50;99.90
36498;DHT22;22513;51.222;6.480;2022-12-18T12:26:16;0.50;99.90
36498;DHT22;22513;51.222;6.480;2022-12-18T12:29:02;0.50;99.90
36498;DHT22;22513;51.222;6.480;2022-12-18T12:37:45;0.50;99.90
36498;DHT22;22513;51.222;6.480;2022-12-18T12:40:18;0.50;99.90
36498;DHT22;22513;51.222;6.480;2022-12-18T12:42:49;0.50;99.90
36498;DHT22;22513;51.222;6.480;2022-12-18T12:48:15;0.40;99.90
36498;DHT22;22513;51.222;6.480;2022-12-18T12:50:42;0.40;99.90
36498;DHT22;22513;51.222;6.480;2022-12-18T12:53:12;0.40;99.90
36498;DHT22;22513;51.222;6.480;2022-12-18T12:55:41;0.40;99.90
36498;DHT22;22513;51.222;6.480;2022-12-18T13:09:31;0.30;99.90
36498;DHT22;22513;51.222;6.480;2022-12-18T13:12:03;0.30;99.90
36498;DHT22;22513;51.222;6.480;2022-12-18T13:14:48;0.30;99.90
36498;DHT22;22513;51.222;6.480;2022-12-18T13:17:28;0.30;99.90
36498;DHT22;22513;51.222;6.480;2022-12-18T13:22:46;0.30;99.90
36498;DHT22;22513;51.222;6.480;2022-12-18T13:25:33;0.20;99.90
36498;DHT22;22513;51.222;6.480;2022-12-18T13:28:13;0.20;99.90
36498;DHT22;22513;51.222;6.480;2022-12-18T13:30:52;0.30;99.90
36498;DHT22;22513;51.222;6.480;2022-12-18T13:41:45;0.10;99.90
36498;DHT22;22513;51.222;6.480;2022-12-18T13:47:01;0.10;99.90
36498;DHT22;22513;51.222;6.480;2022-12-18T13:49:31;0.10;99.90
36498;DHT22;22513;51.222;6.480;2022-12-18T13:52:02;0.10;99.90
36498;DHT22;22513;51.222;6.480;2022-12-18T13:54:35;0.10;99.90
36498;DHT22;22513;51.222;6.480;2022-12-18T13:57:02;0.10;99.90
36498;DHT22;22513;51.222;6.480;2022-12-18T13:59:36;0.10;99.90
36498;DHT22;22513;51.222;6.480;2022-12-18T14:02:17;0.00;99.90
36498;DHT22;22513;51.222;6.480;2022-12-18T14:04:45;0.00;99.90
36498;DHT22;22513;51.222;6.480;2022-12-18T14:07:15;0.00;99.90
36498;DHT22;22513;51.222;6.480;2022-12-18T14:10:14;0.00;99.90
36498;DHT22;22513;51.222;6.480;2022-12-18T14:12:45;-0.10;99.90
36498;DHT22;22513;51.222;6.480;2022-12-18T14:15:44;-0.10;99.90
36498;DHT22;22513;51.222;6.480;2022-12-18T14:20:47;-0.10;99.90
36498;DHT22;22513;51.222;6.480;2022-12-18T14:25:54;-0.10;99.90
36498;DHT22;22513;51.222;6.480;2022-12-18T14:28:20;-0.20;99.90
36498;DHT22;22513;51.222;6.480;2022-12-18T14:30:47;-0.10;99.90
36498;DHT22;22513;51.222;6.480;2022-12-18T14:33:19;-0.20;99.90
36498;DHT22;22513;51.222;6.480;2022-12-18T14:36:05;-0.20;99.90
36498;DHT22;22513;51.222;6.480;2022-12-18T14:38:32;-0.20;99.90
36498;DHT22;22513;51.222;6.480;2022-12-18T14:43:31;-0.20;99.90
36498;DHT22;22513;51.222;6.480;2022-12-18T14:45:57;-0.20;99.90
36498;DHT22;22513;51.222;6.480;2022-12-18T14:48:39;-0.20;99.90
36498;DHT22;22513;51.222;6.480;2022-12-18T14:51:24;-0.30;99.90
36498;DHT22;22513;51.222;6.480;2022-12-18T14:54:02;-0.30;99.90
36498;DHT22;22513;51.222;6.480;2022-12-18T14:56:34;-0.20;99.90
36498;DHT22;22513;51.222;6.480;2022-12-18T14:59:04;-0.20;99.90
36498;DHT22;22513;51.222;6.480;2022-12-18T15:01:39;-0.30;99.90
36498;DHT22;22513;51.222;6.480;2022-12-18T15:04:31;-0.30;99.90
36498;DHT22;22513;51.222;6.480;2022-12-18T15:07:11;-0.30;99.90
36498;DHT22;22513;51.222;6.480;2022-12-18T15:09:39;-0.30;99.90
36498;DHT22;22513;51.222;6.480;2022-12-18T15:12:15;-0.30;99.90
36498;DHT22;22513;51.222;6.480;2022-12-18T15:14:45;-0.30;99.90
36498;DHT22;22513;51.222;6.480;2022-12-18T15:17:19;-0.30;99.90
36498;DHT22;22513;51.222;6.480;2022-12-18T15:19:46;-0.30;99.90
36498;DHT22;22513;51.222;6.480;2022-12-18T15:22:34;-0.30;99.90
36498;DHT22;22513;51.222;6.480;2022-12-18T15:25:01;-0.30;99.90
36498;DHT22;22513;51.222;6.480;2022-12-18T15:27:34;-0.30;99.90
36498;DHT22;22513;51.222;6.480;2022-12-18T15:32:39;-0.30;99.90
36498;DHT22;22513;51.222;6.480;2022-12-18T15:37:40;-0.40;99.90
36498;DHT22;22513;51.222;6.480;2022-12-18T15:40:07;-0.40;99.90
36498;DHT22;22513;51.222;6.480;2022-12-18T15:42:33;-0.40;99.90
36498;DHT22;22513;51.222;6.480;2022-12-18T15:45:18;-0.40;99.90
36498;DHT22;22513;51.222;6.480;2022-12-18T15:47:43;-0.40;99.90
36498;DHT22;22513;51.222;6.480;2022-12-18T15:50:09;-0.40;99.90
36498;DHT22;22513;51.222;6.480;2022-12-18T15:52:46;-0.50;99.90
36498;DHT22;22513;51.222;6.480;2022-12-18T15:55:23;-0.50;99.90
36498;DHT22;22513;51.222;6.480;2022-12-18T15:58:09;-0.50;99.90
36498;DHT22;22513;51.222;6.480;2022-12-18T16:00:36;-0.50;99.90
36498;DHT22;22513;51.222;6.480;2022-12-18T16:03:03;-0.50;99.90
36498;DHT22;22513;51.222;6.480;2022-12-18T16:05:30;-0.50;99.90
36498;DHT22;22513;51.222;6.480;2022-12-18T16:07:55;-0.50;99.90
36498;DHT22;22513;51.222;6.480;2022-12-18T16:10:21;-0.50;99.90
36498;DHT22;22513;51.222;6.480;2022-12-18T16:12:47;-0.50;99.90
36498;DHT22;22513;51.222;6.480;2022-12-18T16:15:14;-0.50;99.90
36498;DHT22;22513;51.222;6.480;2022-12-18T16:17:41;-0.60;99.90
36498;DHT22;22513;51.222;6.480;2022-12-18T16:20:13;-0.60;99.90
36498;DHT22;22513;51.222;6.480;2022-12-18T16:22:40;-0.60;99.90
36498;DHT22;22513;51.222;6.480;2022-12-18T16:25:08;-0.60;99.90
36498;DHT22;22513;51.222;6.480;2022-12-18T16:27:34;-0.60;99.90
36498;DHT22;22513;51.222;6.480;2022-12-18T16:30:00;-0.60;99.90
36498;DHT22;22513;51.222;6.480;2022-12-18T16:32:25;-0.60;99.90
36498;DHT22;22513;51.222;6.480;2022-12-18T16:34:51;-0.60;99.90
36498;DHT22;22513;51.222;6.480;2022-12-18T16:37:16;-0.60;99.90
36498;DHT22;22513;51.222;6.480;2022-12-18T16:39:43;-0.60;99.90
36498;DHT22;22513;51.222;6.480;2022-12-18T16:42:16;-0.60;99.90
36498;DHT22;22513;51.222;6.480;2022-12-18T16:44:45;-0.60;99.90
36498;DHT22;22513;51.222;6.480;2022-12-18T16:47:10;-0.60;99.90
36498;DHT22;22513;51.222;6.480;2022-12-18T16:49:36;-0.60;99.90
36498;DHT22;22513;51.222;6.480;2022-12-18T16:52:03;-0.60;99.90
36498;DHT22;22513;51.222;6.480;2022-12-18T16:54:29;-0.60;99.90
36498;DHT22;22513;51.222;6.480;2022-12-18T16:56:55;-0.60;99.90
36498;DHT22;22513;51.222;6.480;2022-12-18T16:59:21;-0.60;99.90
36498;DHT22;22513;51.222;6.480;2022-12-18T17:01:46;-0.60;99.90
36498;DHT22;22513;51.222;6.480;2022-12-18T17:04:12;-0.50;99.90
36498;DHT22;22513;51.222;6.480;2022-12-18T17:06:41;-0.60;99.90
36498;DHT22;22513;51.222;6.480;2022-12-18T17:09:11;-0.50;99.90
36498;DHT22;22513;51.222;6.480;2022-12-18T17:11:37;-0.50;99.90
36498;DHT22;22513;51.222;6.480;2022-12-18T17:14:07;-0.60;99.90
36498;DHT22;22513;51.222;6.480;2022-12-18T17:16:33;-0.60;99.90
36498;DHT22;22513;51.222;6.480;2022-12-18T17:19:00;-0.60;99.90
36498;DHT22;22513;51.222;6.480;2022-12-18T17:21:26;-0.60;99.90
36498;DHT22;22513;51.222;6.480;2022-12-18T17:23:51;-0.60;99.90
36498;DHT22;22513;51.222;6.480;2022-12-18T17:26:17;-0.60;99.90
36498;DHT22;22513;51.222;6.480;2022-12-18T17:28:43;-0.60;99.90
36498;DHT22;22513;51.222;6.480;2022-12-18T17:33:37;-0.60;99.90
36498;DHT22;22513;51.222;6.480;2022-12-18T17:36:03;-0.60;99.90
36498;DHT22;22513;51.222;6.480;2022-12-18T17:38:28;-0.60;99.90
36498;DHT22;22513;51.222;6.480;2022-12-18T17:41:00;-0.60;99.90
36498;DHT22;22513;51.222;6.480;2022-12-18T17:43:25;-0.60;99.90
36498;DHT22;22513;51.222;6.480;2022-12-18T17:45:51;-0.60;99.90
36498;DHT22;22513;51.222;6.480;2022-12-18T17:48:16;-0.70;99.90
36498;DHT22;22513;51.222;6.480;2022-12-18T17:50:42;-0.60;99.90
36498;DHT22;22513;51.222;6.480;2022-12-18T17:53:08;-0.70;99.90
36498;DHT22;22513;51.222;6.480;2022-12-18T17:55:34;-0.70;99.90
36498;DHT22;22513;51.222;6.480;2022-12-18T17:57:59;-0.70;99.90
36498;DHT22;22513;51.222;6.480;2022-12-18T18:00:25;-0.70;99.90
36498;DHT22;22513;51.222;6.480;2022-12-18T18:02:50;-0.70;99.90
36498;DHT22;22513;51.222;6.480;2022-12-18T18:05:16;-0.70;99.90
36498;DHT22;22513;51.222;6.480;2022-12-18T18:07:42;-0.60;99.90
36498;DHT22;22513;51.222;6.480;2022-12-18T18:10:08;-0.70;99.90
36498;DHT22;22513;51.222;6.480;2022-12-18T18:12:35;-0.70;99.90